Main page
METAR-TAF:

METAR-TAF

Airports :

Stockholm Arlanda Airport

Stockholm-Arlanda, Sweden

latitude: 59-39N, longitude: 017-57E, elevation: 38 m

Current weather observation

The report was made 28 minutes ago, at 16:50 UTC
Wind 6 kt from the West/Southwest, varying between South/Southwest and West
Temperature 22°C
Humidity 65%
Pressure 1010 hPa
Visibility 10 km or more
Few clouds at a height of 3800 ft, Towering cumulus.
Scattered clouds at a height of 4600 ft

METAR: ESSA 231650Z 24006KT 210V270 9999 FEW038TCU SCT046 22/15 Q1010 TEMPO SCT030TCU

Time: 19:18 (17:18 UTC)

Forecast

The report was made 2 hours and 48 minutes ago, at 14:30 UTC
Forecast valid from 23 at 15 UTC to 24 at 15 UTC
Wind 5 kt from the West
Visibility 10 km or more
Scattered clouds at a height of 4000 ft
Temporary
from 23 at 15 UTC to 23 at 17 UTC
Scattered clouds at a height of 4000 ft, Cumulonimbus.

TAF: ESSA 231430Z 2315/2415 26005KT 9999 SCT040 TEMPO 2315/2317 SCT040CB

Weather observations and forecasts of more than 4000 airports (METAR and TAF reports).

The available stations are represented by yellow and red dots on the map.

Hover mouse over dot to see the name of the station.

Then click to see weather observations and forecasts.

To change the map : click on the green buttons with a black cross to zoom in, on the green button with a dash to zoom out, or on the green arrows for adjacent maps.


METAR-TAF: